Florencia — IBPD — position and weather

sailwx.info

Track history (hours):
 
Tides and Currents Weather Stations Pressure Air Temp Water Temp Dewpoint Dewpoint Depression Visibility Wind Speed Wind Dir Waves Ship Positions

Florencia

Last reported at 2014-Aug-31 03:27 UTC. Time now 2014-Sep-01 21:01 UTC.
Position N 37°36' E 011°17'.

Length 186 m; draft 6 m.

Type: Passenger vessel. MMSI: 247105900.

Date/timePositionNaut miles runAvg speedWind from/ knotsBaromVisibWave heightAir tempDewpointWater temp
2014-Aug-31 03:27N 37°36' E 011°17'2322.0
2014-Aug-31 02:23N 37°20' E 010°56'1922.3
2014-Aug-31 01:33N 37°06' E 010°41'2321.5
2014-Aug-31 00:28N 36°48' E 010°22'3 1.1
2014-Aug-30 21:19N 36°49' E 010°18'0 0.0
2014-Aug-30 20:31N 36°49' E 010°18'0 0.0
2014-Aug-30 19:28N 36°49' E 010°18'0 0.0
2014-Aug-30 18:33N 36°49' E 010°18'1111.2
2014-Aug-30 17:33N 36°55' E 010°30'2222.1
2014-Aug-30 16:34N 37°12' E 010°47'2222.0
2014-Aug-30 15:34N 37°27' E 011°07'140 3.8
2014-Aug-29 02:33N 38°58' E 013°23'2222.1
2014-Aug-29 01:33N 38°38' E 013°33'2222.2
2014-Aug-29 00:33N 38°18' E 013°45'1917.8
2014-Aug-28 23:30N 37°59' E 013°42'0 0.0
2014-Aug-28 22:33N 37°59' E 013°42'0 0.0
2014-Aug-28 21:30N 37°59' E 013°42'0 0.0
2014-Aug-28 20:33N 37°59' E 013°42'6 6.4
2014-Aug-28 19:33N 38°05' E 013°44'2121.2
2014-Aug-28 18:33N 38°26' E 013°39'2221.7
2014-Aug-28 17:32N 38°47' E 013°28'2422.1
2014-Aug-28 16:27N 39°09' E 013°16'11 0.5
2014-Aug-27 19:26N 39°15' E 013°05'1922.0
2014-Aug-27 18:33N 38°57' E 013°13'2222.3
2014-Aug-27 17:33N 38°36' E 013°21'2222.5
2014-Aug-27 16:33N 38°13' E 013°24'6 5.7
2014-Aug-27 15:31N 38°08' E 013°22'0 0.0
2014-Aug-27 14:31N 38°08' E 013°22'0 0.0
2014-Aug-27 13:28N 38°08' E 013°22'0 0.0
2014-Aug-27 12:28N 38°08' E 013°22'0 0.0
2014-Aug-27 11:31N 38°08' E 013°22'1 1.5
2014-Aug-27 10:33N 38°08' E 013°24'1 0.7
2014-Aug-27 09:33N 38°08' E 013°25'2 2.0
2014-Aug-27 08:31N 38°08' E 013°22'0 0.0
2014-Aug-27 07:31N 38°08' E 013°22'0 0.0
2014-Aug-27 06:31N 38°08' E 013°22'0 0.0
2014-Aug-27 05:31N 38°08' E 013°22'0 0.0
2014-Aug-27 04:31N 38°08' E 013°22'0 0.0
2014-Aug-27 03:31N 38°08' E 013°22'0 0.0
2014-Aug-27 02:31N 38°08' E 013°22'0 0.0
2014-Aug-27 01:31N 38°08' E 013°22'0 0.0
2014-Aug-27 00:31N 38°08' E 013°22'0 0.0
2014-Aug-26 23:31N 38°08' E 013°22'0 0.0
2014-Aug-26 22:31N 38°08' E 013°22'0 0.0
2014-Aug-26 21:31N 38°08' E 013°22'0 0.0
2014-Aug-26 20:31N 38°08' E 013°22'0 0.0
2014-Aug-26 19:31N 38°08' E 013°22'0 0.0
2014-Aug-26 18:31N 38°08' E 013°22'0 0.0
2014-Aug-26 17:31N 38°08' E 013°22'0 0.0
2014-Aug-26 16:31N 38°08' E 013°22'0 0.0
2014-Aug-26 15:31N 38°08' E 013°22'0 0.0
2014-Aug-26 11:04N 38°08' E 013°22'0 0.0
2014-Aug-26 08:04N 38°08' E 013°22'0 0.0
2014-Aug-26 07:31N 38°08' E 013°22'0 0.0
2014-Aug-26 06:31N 38°08' E 013°22'0 0.0
2014-Aug-26 05:31N 38°08' E 013°22'0 0.0
2014-Aug-26 04:31N 38°08' E 013°22'0 0.0
2014-Aug-26 03:31N 38°08' E 013°22'0 0.0
2014-Aug-26 02:31N 38°08' E 013°22'0 0.0
2014-Aug-26 01:31N 38°08' E 013°22'0 0.0
2014-Aug-26 00:31N 38°08' E 013°22'0 0.0
2014-Aug-25 23:31N 38°08' E 013°22'0 0.0
2014-Aug-25 22:31N 38°08' E 013°22'0 0.0
2014-Aug-25 21:31N 38°08' E 013°22'0 0.0
2014-Aug-25 20:31N 38°08' E 013°22'0 0.0
2014-Aug-25 19:31N 38°08' E 013°22'0 0.0
2014-Aug-25 18:31N 38°08' E 013°22'0 0.0
2014-Aug-25 17:28N 38°08' E 013°22'0 0.0
2014-Aug-25 16:31N 38°08' E 013°22'0 0.0
2014-Aug-25 15:31N 38°08' E 013°22'0 0.0
2014-Aug-25 14:31N 38°08' E 013°22'0 0.0
2014-Aug-25 13:31N 38°08' E 013°22'0 0.0
2014-Aug-25 12:31N 38°08' E 013°22'0 0.0
2014-Aug-25 11:31N 38°08' E 013°22'0 0.0
2014-Aug-25 10:31N 38°08' E 013°22'0 0.0
2014-Aug-25 09:31N 38°08' E 013°22'0 0.0
2014-Aug-25 08:31N 38°08' E 013°22'0 0.0
2014-Aug-25 07:31N 38°08' E 013°22'0 0.0
2014-Aug-25 06:31N 38°08' E 013°22'0 0.1
2014-Aug-25 05:33N 38°08' E 013°22'0 0.0
2014-Aug-25 04:33N 38°08' E 013°22'0 0.0
2014-Aug-25 03:33N 38°08' E 013°22'0 0.0
2014-Aug-25 02:33N 38°08' E 013°22'0 0.0
2014-Aug-25 01:33N 38°08' E 013°22'0 0.0
2014-Aug-25 00:33N 38°08' E 013°22'0 0.0
2014-Aug-24 23:33N 38°08' E 013°22'0 0.0
2014-Aug-24 22:30N 38°08' E 013°22'0 0.0
2014-Aug-24 21:30N 38°08' E 013°22'0 0.0
2014-Aug-24 20:33N 38°08' E 013°22'0 0.0
2014-Aug-24 19:33N 38°08' E 013°22'0 0.0
2014-Aug-24 18:30N 38°08' E 013°22'0 0.0
2014-Aug-24 17:33N 38°08' E 013°22'0 0.0
2014-Aug-24 16:33N 38°08' E 013°22'0 0.0
2014-Aug-24 15:33N 38°08' E 013°22'0 0.0
2014-Aug-24 14:30N 38°08' E 013°22'0 0.0
2014-Aug-24 13:33N 38°08' E 013°22'0 0.0
2014-Aug-24 12:30N 38°08' E 013°22'0 0.0
2014-Aug-24 11:33N 38°08' E 013°22'0 0.0
2014-Aug-24 10:27N 38°08' E 013°22'0 0.0
2014-Aug-24 09:27N 38°08' E 013°22'0 0.0
2014-Aug-24 08:33N 38°08' E 013°22'0 0.0
2014-Aug-24 07:33N 38°08' E 013°22'0 0.0
2014-Aug-24 06:33N 38°08' E 013°22'0 0.0
2014-Aug-24 05:33N 38°08' E 013°22'0 0.0
2014-Aug-24 04:33N 38°08' E 013°22'0 0.0
2014-Aug-24 03:33N 38°08' E 013°22'0 0.0
2014-Aug-24 02:33N 38°08' E 013°22'0 0.0
2014-Aug-24 01:33N 38°08' E 013°22'0 0.0
2014-Aug-24 00:33N 38°08' E 013°22'0 0.0
2014-Aug-23 23:33N 38°08' E 013°22'0 0.0
2014-Aug-23 22:33N 38°08' E 013°22'0 0.0
2014-Aug-23 21:30N 38°08' E 013°22'0 0.0
2014-Aug-23 20:33N 38°08' E 013°22'3 3.0
2014-Aug-23 19:33N 38°10' E 013°24'46 1.1
2014-Aug-22 02:09N 38°56' E 013°23'1322.1
2014-Aug-22 01:33N 38°44' E 013°30'2221.9
2014-Aug-22 00:33N 38°23' E 013°40'2221.7
2014-Aug-21 23:34N 38°02' E 013°44'3 2.9
2014-Aug-21 22:30N 37°59' E 013°42'0 0.0
2014-Aug-21 21:30N 37°59' E 013°42'0 0.0
2014-Aug-21 20:30N 37°59' E 013°42'0 0.0
2014-Aug-21 19:33N 37°59' E 013°42'0 0.0
2014-Aug-21 18:33N 37°59' E 013°42'0 0.0
2014-Aug-21 17:33N 37°59' E 013°42'0 0.0
2014-Aug-21 16:33N 37°59' E 013°42'0 0.0
2014-Aug-21 15:33N 37°59' E 013°42'0 0.0
2014-Aug-21 14:30N 37°59' E 013°42'0 0.0
2014-Aug-21 13:33N 37°59' E 013°42'0 0.0
2014-Aug-21 12:33N 37°59' E 013°42'0 0.0
2014-Aug-21 11:33N 37°59' E 013°42'0 0.0
2014-Aug-21 10:33N 37°59' E 013°42'0 0.0
2014-Aug-21 09:33N 37°59' E 013°42'0 0.0
2014-Aug-21 08:33N 37°59' E 013°42'0 0.0
2014-Aug-21 07:34N 37°59' E 013°42'1313.3
2014-Aug-21 06:33N 38°12' E 013°43'2121.4
2014-Aug-21 05:33N 38°33' E 013°35'2121.3
2014-Aug-21 04:33N 38°53' E 013°24'  
Track history (hours):
 
Tides and Currents Weather Stations Pressure Air Temp Water Temp Dewpoint Dewpoint Depression Visibility Wind Speed Wind Dir Waves Ship Positions

Florencia

Last reported at 2014-Aug-31 03:27 UTC. Time now 2014-Sep-01 21:01 UTC.
Position N 37°36' E 011°17'.

Length 186 m; draft 6 m.

Type: Passenger vessel. MMSI: 247105900.

Date/timePositionNaut miles runAvg speedWind from/ knotsBaromVisibWave heightAir tempDewpointWater temp
2014-Aug-31 03:27N 37°36' E 011°17'2322.0
2014-Aug-31 02:23N 37°20' E 010°56'1922.3
2014-Aug-31 01:33N 37°06' E 010°41'2321.5
2014-Aug-31 00:28N 36°48' E 010°22'3 1.1
2014-Aug-30 21:19N 36°49' E 010°18'0 0.0
2014-Aug-30 20:31N 36°49' E 010°18'0 0.0
2014-Aug-30 19:28N 36°49' E 010°18'0 0.0
2014-Aug-30 18:33N 36°49' E 010°18'1111.2
2014-Aug-30 17:33N 36°55' E 010°30'2222.1
2014-Aug-30 16:34N 37°12' E 010°47'2222.0
2014-Aug-30 15:34N 37°27' E 011°07'140 3.8
2014-Aug-29 02:33N 38°58' E 013°23'2222.1
2014-Aug-29 01:33N 38°38' E 013°33'2222.2
2014-Aug-29 00:33N 38°18' E 013°45'1917.8
2014-Aug-28 23:30N 37°59' E 013°42'0 0.0
2014-Aug-28 22:33N 37°59' E 013°42'0 0.0
2014-Aug-28 21:30N 37°59' E 013°42'0 0.0
2014-Aug-28 20:33N 37°59' E 013°42'6 6.4
2014-Aug-28 19:33N 38°05' E 013°44'2121.2
2014-Aug-28 18:33N 38°26' E 013°39'2221.7
2014-Aug-28 17:32N 38°47' E 013°28'2422.1
2014-Aug-28 16:27N 39°09' E 013°16'11 0.5
2014-Aug-27 19:26N 39°15' E 013°05'1922.0
2014-Aug-27 18:33N 38°57' E 013°13'2222.3
2014-Aug-27 17:33N 38°36' E 013°21'2222.5
2014-Aug-27 16:33N 38°13' E 013°24'6 5.7
2014-Aug-27 15:31N 38°08' E 013°22'0 0.0
2014-Aug-27 14:31N 38°08' E 013°22'0 0.0
2014-Aug-27 13:28N 38°08' E 013°22'0 0.0
2014-Aug-27 12:28N 38°08' E 013°22'0 0.0
2014-Aug-27 11:31N 38°08' E 013°22'1 1.5
2014-Aug-27 10:33N 38°08' E 013°24'1 0.7
2014-Aug-27 09:33N 38°08' E 013°25'2 2.0
2014-Aug-27 08:31N 38°08' E 013°22'0 0.0
2014-Aug-27 07:31N 38°08' E 013°22'0 0.0
2014-Aug-27 06:31N 38°08' E 013°22'0 0.0
2014-Aug-27 05:31N 38°08' E 013°22'0 0.0
2014-Aug-27 04:31N 38°08' E 013°22'0 0.0
2014-Aug-27 03:31N 38°08' E 013°22'0 0.0
2014-Aug-27 02:31N 38°08' E 013°22'0 0.0
2014-Aug-27 01:31N 38°08' E 013°22'0 0.0
2014-Aug-27 00:31N 38°08' E 013°22'0 0.0
2014-Aug-26 23:31N 38°08' E 013°22'0 0.0
2014-Aug-26 22:31N 38°08' E 013°22'0 0.0
2014-Aug-26 21:31N 38°08' E 013°22'0 0.0
2014-Aug-26 20:31N 38°08' E 013°22'0 0.0
2014-Aug-26 19:31N 38°08' E 013°22'0 0.0
2014-Aug-26 18:31N 38°08' E 013°22'0 0.0
2014-Aug-26 17:31N 38°08' E 013°22'0 0.0
2014-Aug-26 16:31N 38°08' E 013°22'0 0.0
2014-Aug-26 15:31N 38°08' E 013°22'0 0.0
2014-Aug-26 11:04N 38°08' E 013°22'0 0.0
2014-Aug-26 08:04N 38°08' E 013°22'0 0.0
2014-Aug-26 07:31N 38°08' E 013°22'0 0.0
2014-Aug-26 06:31N 38°08' E 013°22'0 0.0
2014-Aug-26 05:31N 38°08' E 013°22'0 0.0
2014-Aug-26 04:31N 38°08' E 013°22'0 0.0
2014-Aug-26 03:31N 38°08' E 013°22'0 0.0
2014-Aug-26 02:31N 38°08' E 013°22'0 0.0
2014-Aug-26 01:31N 38°08' E 013°22'0 0.0
2014-Aug-26 00:31N 38°08' E 013°22'0 0.0
2014-Aug-25 23:31N 38°08' E 013°22'0 0.0
2014-Aug-25 22:31N 38°08' E 013°22'0 0.0
2014-Aug-25 21:31N 38°08' E 013°22'0 0.0
2014-Aug-25 20:31N 38°08' E 013°22'0 0.0
2014-Aug-25 19:31N 38°08' E 013°22'0 0.0
2014-Aug-25 18:31N 38°08' E 013°22'0 0.0
2014-Aug-25 17:28N 38°08' E 013°22'0 0.0
2014-Aug-25 16:31N 38°08' E 013°22'0 0.0
2014-Aug-25 15:31N 38°08' E 013°22'0 0.0
2014-Aug-25 14:31N 38°08' E 013°22'0 0.0
2014-Aug-25 13:31N 38°08' E 013°22'0 0.0
2014-Aug-25 12:31N 38°08' E 013°22'0 0.0
2014-Aug-25 11:31N 38°08' E 013°22'0 0.0
2014-Aug-25 10:31N 38°08' E 013°22'0 0.0
2014-Aug-25 09:31N 38°08' E 013°22'0 0.0
2014-Aug-25 08:31N 38°08' E 013°22'0 0.0
2014-Aug-25 07:31N 38°08' E 013°22'0 0.0
2014-Aug-25 06:31N 38°08' E 013°22'0 0.1
2014-Aug-25 05:33N 38°08' E 013°22'0 0.0
2014-Aug-25 04:33N 38°08' E 013°22'0 0.0
2014-Aug-25 03:33N 38°08' E 013°22'0 0.0
2014-Aug-25 02:33N 38°08' E 013°22'0 0.0
2014-Aug-25 01:33N 38°08' E 013°22'0 0.0
2014-Aug-25 00:33N 38°08' E 013°22'0 0.0
2014-Aug-24 23:33N 38°08' E 013°22'0 0.0
2014-Aug-24 22:30N 38°08' E 013°22'0 0.0
2014-Aug-24 21:30N 38°08' E 013°22'0 0.0
2014-Aug-24 20:33N 38°08' E 013°22'0 0.0
2014-Aug-24 19:33N 38°08' E 013°22'0 0.0
2014-Aug-24 18:30N 38°08' E 013°22'0 0.0
2014-Aug-24 17:33N 38°08' E 013°22'0 0.0
2014-Aug-24 16:33N 38°08' E 013°22'0 0.0
2014-Aug-24 15:33N 38°08' E 013°22'0 0.0
2014-Aug-24 14:30N 38°08' E 013°22'0 0.0
2014-Aug-24 13:33N 38°08' E 013°22'0 0.0
2014-Aug-24 12:30N 38°08' E 013°22'0 0.0
2014-Aug-24 11:33N 38°08' E 013°22'0 0.0
2014-Aug-24 10:27N 38°08' E 013°22'0 0.0
2014-Aug-24 09:27N 38°08' E 013°22'0 0.0
2014-Aug-24 08:33N 38°08' E 013°22'0 0.0
2014-Aug-24 07:33N 38°08' E 013°22'0 0.0
2014-Aug-24 06:33N 38°08' E 013°22'0 0.0
2014-Aug-24 05:33N 38°08' E 013°22'0 0.0
2014-Aug-24 04:33N 38°08' E 013°22'0 0.0
2014-Aug-24 03:33N 38°08' E 013°22'0 0.0
2014-Aug-24 02:33N 38°08' E 013°22'0 0.0
2014-Aug-24 01:33N 38°08' E 013°22'0 0.0
2014-Aug-24 00:33N 38°08' E 013°22'0 0.0
2014-Aug-23 23:33N 38°08' E 013°22'0 0.0
2014-Aug-23 22:33N 38°08' E 013°22'0 0.0
2014-Aug-23 21:30N 38°08' E 013°22'0 0.0
2014-Aug-23 20:33N 38°08' E 013°22'3 3.0
2014-Aug-23 19:33N 38°10' E 013°24'46 1.1
2014-Aug-22 02:09N 38°56' E 013°23'1322.1
2014-Aug-22 01:33N 38°44' E 013°30'2221.9
2014-Aug-22 00:33N 38°23' E 013°40'2221.7
2014-Aug-21 23:34N 38°02' E 013°44'3 2.9
2014-Aug-21 22:30N 37°59' E 013°42'0 0.0
2014-Aug-21 21:30N 37°59' E 013°42'0 0.0
2014-Aug-21 20:30N 37°59' E 013°42'0 0.0
2014-Aug-21 19:33N 37°59' E 013°42'0 0.0
2014-Aug-21 18:33N 37°59' E 013°42'0 0.0
2014-Aug-21 17:33N 37°59' E 013°42'0 0.0
2014-Aug-21 16:33N 37°59' E 013°42'0 0.0
2014-Aug-21 15:33N 37°59' E 013°42'0 0.0
2014-Aug-21 14:30N 37°59' E 013°42'0 0.0
2014-Aug-21 13:33N 37°59' E 013°42'0 0.0
2014-Aug-21 12:33N 37°59' E 013°42'0 0.0
2014-Aug-21 11:33N 37°59' E 013°42'0 0.0
2014-Aug-21 10:33N 37°59' E 013°42'0 0.0
2014-Aug-21 09:33N 37°59' E 013°42'0 0.0
2014-Aug-21 08:33N 37°59' E 013°42'0 0.0
2014-Aug-21 07:34N 37°59' E 013°42'1313.3
2014-Aug-21 06:33N 38°12' E 013°43'2121.4
2014-Aug-21 05:33N 38°33' E 013°35'2121.3
2014-Aug-21 04:33N 38°53' E 013°24'  

Dump ship's entire track history